sensor_id;sensor_type;location;lat;lon;timestamp;P1;durP1;ratioP1;P2;durP2;ratioP2
10226;SDS011;15634;48.766;2.272;2023-01-28T00:02:26;23.88;;;13.90;;
10226;SDS011;15634;48.766;2.272;2023-01-28T00:04:52;26.33;;;14.65;;
10226;SDS011;15634;48.766;2.272;2023-01-28T00:07:19;25.38;;;13.48;;
10226;SDS011;15634;48.766;2.272;2023-01-28T00:09:46;27.00;;;14.43;;
10226;SDS011;15634;48.766;2.272;2023-01-28T00:12:13;24.50;;;13.48;;
10226;SDS011;15634;48.766;2.272;2023-01-28T00:14:40;29.48;;;14.15;;
10226;SDS011;15634;48.766;2.272;2023-01-28T00:17:08;21.67;;;12.38;;
10226;SDS011;15634;48.766;2.272;2023-01-28T00:19:34;23.75;;;13.15;;
10226;SDS011;15634;48.766;2.272;2023-01-28T00:22:01;26.85;;;14.00;;
10226;SDS011;15634;48.766;2.272;2023-01-28T00:24:28;27.27;;;14.07;;
10226;SDS011;15634;48.766;2.272;2023-01-28T00:26:55;28.02;;;14.25;;
10226;SDS011;15634;48.766;2.272;2023-01-28T00:29:22;25.92;;;14.05;;
10226;SDS011;15634;48.766;2.272;2023-01-28T00:31:49;25.65;;;14.30;;
10226;SDS011;15634;48.766;2.272;2023-01-28T00:34:17;28.13;;;14.93;;
10226;SDS011;15634;48.766;2.272;2023-01-28T00:36:43;25.05;;;13.45;;
10226;SDS011;15634;48.766;2.272;2023-01-28T00:39:10;23.70;;;13.52;;
10226;SDS011;15634;48.766;2.272;2023-01-28T00:41:39;23.95;;;13.40;;
10226;SDS011;15634;48.766;2.272;2023-01-28T00:44:07;24.70;;;13.70;;
10226;SDS011;15634;48.766;2.272;2023-01-28T00:46:33;25.63;;;14.35;;
10226;SDS011;15634;48.766;2.272;2023-01-28T00:49:00;26.10;;;13.88;;
10226;SDS011;15634;48.766;2.272;2023-01-28T00:51:29;25.55;;;13.93;;
10226;SDS011;15634;48.766;2.272;2023-01-28T00:53:55;26.00;;;13.45;;
10226;SDS011;15634;48.766;2.272;2023-01-28T00:56:22;26.23;;;13.65;;
10226;SDS011;15634;48.766;2.272;2023-01-28T00:58:49;25.85;;;13.55;;
10226;SDS011;15634;48.766;2.272;2023-01-28T01:01:17;26.05;;;13.98;;
10226;SDS011;15634;48.766;2.272;2023-01-28T01:03:44;23.63;;;12.82;;
10226;SDS011;15634;48.766;2.272;2023-01-28T01:06:12;25.05;;;12.68;;
10226;SDS011;15634;48.766;2.272;2023-01-28T01:08:41;24.13;;;13.40;;
10226;SDS011;15634;48.766;2.272;2023-01-28T01:11:14;24.13;;;12.98;;
10226;SDS011;15634;48.766;2.272;2023-01-28T01:13:41;24.17;;;13.35;;
10226;SDS011;15634;48.766;2.272;2023-01-28T01:16:09;26.48;;;14.02;;
10226;SDS011;15634;48.766;2.272;2023-01-28T01:18:37;23.50;;;13.23;;
10226;SDS011;15634;48.766;2.272;2023-01-28T01:21:06;23.50;;;13.15;;
10226;SDS011;15634;48.766;2.272;2023-01-28T01:23:34;23.00;;;12.43;;
10226;SDS011;15634;48.766;2.272;2023-01-28T01:26:03;20.92;;;11.52;;
10226;SDS011;15634;48.766;2.272;2023-01-28T01:28:30;23.80;;;12.43;;
10226;SDS011;15634;48.766;2.272;2023-01-28T01:30:58;19.13;;;10.40;;
10226;SDS011;15634;48.766;2.272;2023-01-28T01:33:26;23.08;;;12.18;;
10226;SDS011;15634;48.766;2.272;2023-01-28T01:35:53;27.92;;;13.48;;
10226;SDS011;15634;48.766;2.272;2023-01-28T01:38:20;23.75;;;12.75;;
10226;SDS011;15634;48.766;2.272;2023-01-28T01:40:47;20.15;;;11.15;;
10226;SDS011;15634;48.766;2.272;2023-01-28T01:43:16;23.45;;;11.85;;
10226;SDS011;15634;48.766;2.272;2023-01-28T01:45:44;25.60;;;12.95;;
10226;SDS011;15634;48.766;2.272;2023-01-28T01:48:14;21.67;;;11.88;;
10226;SDS011;15634;48.766;2.272;2023-01-28T01:50:44;21.00;;;11.82;;
10226;SDS011;15634;48.766;2.272;2023-01-28T01:53:16;22.80;;;12.25;;
10226;SDS011;15634;48.766;2.272;2023-01-28T01:55:46;20.65;;;10.93;;
10226;SDS011;15634;48.766;2.272;2023-01-28T01:58:14;22.83;;;11.88;;
10226;SDS011;15634;48.766;2.272;2023-01-28T02:00:44;21.20;;;11.73;;
10226;SDS011;15634;48.766;2.272;2023-01-28T02:03:11;23.17;;;11.80;;
10226;SDS011;15634;48.766;2.272;2023-01-28T02:05:38;20.20;;;11.77;;
10226;SDS011;15634;48.766;2.272;2023-01-28T02:08:05;21.85;;;11.75;;
10226;SDS011;15634;48.766;2.272;2023-01-28T02:10:50;19.73;;;11.50;;
10226;SDS011;15634;48.766;2.272;2023-01-28T02:13:20;20.80;;;11.68;;
10226;SDS011;15634;48.766;2.272;2023-01-28T02:15:49;18.98;;;10.93;;
10226;SDS011;15634;48.766;2.272;2023-01-28T02:18:16;20.58;;;11.38;;
10226;SDS011;15634;48.766;2.272;2023-01-28T02:20:48;19.08;;;11.02;;
10226;SDS011;15634;48.766;2.272;2023-01-28T02:23:36;19.52;;;11.43;;
10226;SDS011;15634;48.766;2.272;2023-01-28T02:26:16;20.20;;;11.52;;
10226;SDS011;15634;48.766;2.272;2023-01-28T02:28:53;21.05;;;11.48;;
10226;SDS011;15634;48.766;2.272;2023-01-28T02:31:26;19.23;;;10.88;;
10226;SDS011;15634;48.766;2.272;2023-01-28T02:33:57;24.67;;;12.95;;
10226;SDS011;15634;48.766;2.272;2023-01-28T02:36:27;21.17;;;11.48;;
10226;SDS011;15634;48.766;2.272;2023-01-28T02:38:56;19.88;;;10.90;;
10226;SDS011;15634;48.766;2.272;2023-01-28T02:41:27;23.02;;;11.93;;
10226;SDS011;15634;48.766;2.272;2023-01-28T02:44:00;24.98;;;11.75;;
10226;SDS011;15634;48.766;2.272;2023-01-28T02:46:33;22.67;;;12.13;;
10226;SDS011;15634;48.766;2.272;2023-01-28T02:49:19;23.27;;;11.98;;
10226;SDS011;15634;48.766;2.272;2023-01-28T02:51:52;21.85;;;12.10;;
10226;SDS011;15634;48.766;2.272;2023-01-28T02:54:28;22.92;;;13.10;;
10226;SDS011;15634;48.766;2.272;2023-01-28T02:57:00;21.73;;;11.75;;
10226;SDS011;15634;48.766;2.272;2023-01-28T02:59:37;22.08;;;12.82;;
10226;SDS011;15634;48.766;2.272;2023-01-28T03:02:08;24.00;;;13.38;;
10226;SDS011;15634;48.766;2.272;2023-01-28T03:04:39;20.85;;;11.60;;
10226;SDS011;15634;48.766;2.272;2023-01-28T03:07:10;24.33;;;13.38;;
10226;SDS011;15634;48.766;2.272;2023-01-28T03:09:38;24.90;;;12.68;;
10226;SDS011;15634;48.766;2.272;2023-01-28T03:12:06;26.45;;;13.35;;
10226;SDS011;15634;48.766;2.272;2023-01-28T03:14:53;30.08;;;13.70;;
10226;SDS011;15634;48.766;2.272;2023-01-28T03:17:40;23.25;;;13.00;;
10226;SDS011;15634;48.766;2.272;2023-01-28T03:20:28;24.95;;;13.98;;
10226;SDS011;15634;48.766;2.272;2023-01-28T03:23:17;25.17;;;13.20;;
10226;SDS011;15634;48.766;2.272;2023-01-28T03:26:05;24.50;;;13.80;;
10226;SDS011;15634;48.766;2.272;2023-01-28T03:28:50;26.70;;;14.23;;
10226;SDS011;15634;48.766;2.272;2023-01-28T03:31:37;24.02;;;13.40;;
10226;SDS011;15634;48.766;2.272;2023-01-28T03:34:21;23.83;;;12.38;;
10226;SDS011;15634;48.766;2.272;2023-01-28T03:37:05;24.50;;;12.75;;
10226;SDS011;15634;48.766;2.272;2023-01-28T03:39:32;24.35;;;12.77;;
10226;SDS011;15634;48.766;2.272;2023-01-28T03:42:00;23.70;;;12.95;;
10226;SDS011;15634;48.766;2.272;2023-01-28T03:44:28;26.48;;;12.95;;
10226;SDS011;15634;48.766;2.272;2023-01-28T03:47:14;24.45;;;12.75;;
10226;SDS011;15634;48.766;2.272;2023-01-28T03:49:41;22.00;;;11.98;;
10226;SDS011;15634;48.766;2.272;2023-01-28T03:52:09;22.33;;;12.68;;
10226;SDS011;15634;48.766;2.272;2023-01-28T03:54:36;22.95;;;12.80;;
10226;SDS011;15634;48.766;2.272;2023-01-28T03:57:03;25.85;;;13.65;;
10226;SDS011;15634;48.766;2.272;2023-01-28T03:59:30;22.75;;;12.90;;
10226;SDS011;15634;48.766;2.272;2023-01-28T04:01:57;20.98;;;12.35;;
10226;SDS011;15634;48.766;2.272;2023-01-28T04:04:25;26.33;;;13.55;;
10226;SDS011;15634;48.766;2.272;2023-01-28T04:06:52;23.40;;;12.98;;
10226;SDS011;15634;48.766;2.272;2023-01-28T04:09:20;26.05;;;13.98;;
10226;SDS011;15634;48.766;2.272;2023-01-28T04:11:47;23.45;;;12.68;;
10226;SDS011;15634;48.766;2.272;2023-01-28T04:14:15;24.42;;;13.23;;
10226;SDS011;15634;48.766;2.272;2023-01-28T04:16:41;25.08;;;13.05;;
10226;SDS011;15634;48.766;2.272;2023-01-28T04:19:08;23.90;;;12.88;;
10226;SDS011;15634;48.766;2.272;2023-01-28T04:21:37;24.00;;;12.75;;
10226;SDS011;15634;48.766;2.272;2023-01-28T04:24:04;22.15;;;12.45;;
10226;SDS011;15634;48.766;2.272;2023-01-28T04:26:31;24.17;;;13.38;;
10226;SDS011;15634;48.766;2.272;2023-01-28T04:28:58;26.85;;;14.05;;
10226;SDS011;15634;48.766;2.272;2023-01-28T04:31:25;23.80;;;12.27;;
10226;SDS011;15634;48.766;2.272;2023-01-28T04:33:51;23.75;;;12.98;;
10226;SDS011;15634;48.766;2.272;2023-01-28T04:36:18;24.63;;;13.05;;
10226;SDS011;15634;48.766;2.272;2023-01-28T04:38:46;25.00;;;12.70;;
10226;SDS011;15634;48.766;2.272;2023-01-28T04:41:13;25.85;;;12.90;;
10226;SDS011;15634;48.766;2.272;2023-01-28T04:43:39;23.23;;;12.93;;
10226;SDS011;15634;48.766;2.272;2023-01-28T04:46:06;21.48;;;11.50;;
10226;SDS011;15634;48.766;2.272;2023-01-28T04:48:33;23.50;;;12.10;;
10226;SDS011;15634;48.766;2.272;2023-01-28T04:51:00;22.50;;;12.35;;
10226;SDS011;15634;48.766;2.272;2023-01-28T04:53:28;23.80;;;13.75;;
10226;SDS011;15634;48.766;2.272;2023-01-28T04:55:56;24.00;;;12.85;;
10226;SDS011;15634;48.766;2.272;2023-01-28T04:58:23;26.35;;;13.68;;
10226;SDS011;15634;48.766;2.272;2023-01-28T05:00:52;27.45;;;13.95;;
10226;SDS011;15634;48.766;2.272;2023-01-28T05:03:20;23.75;;;13.43;;
10226;SDS011;15634;48.766;2.272;2023-01-28T05:05:46;26.83;;;14.02;;
10226;SDS011;15634;48.766;2.272;2023-01-28T05:08:13;23.45;;;11.73;;
10226;SDS011;15634;48.766;2.272;2023-01-28T05:10:41;29.30;;;14.43;;
10226;SDS011;15634;48.766;2.272;2023-01-28T05:13:09;24.38;;;13.70;;
10226;SDS011;15634;48.766;2.272;2023-01-28T05:15:36;25.90;;;13.82;;
10226;SDS011;15634;48.766;2.272;2023-01-28T05:18:02;26.13;;;13.15;;
10226;SDS011;15634;48.766;2.272;2023-01-28T05:20:29;25.60;;;13.70;;
10226;SDS011;15634;48.766;2.272;2023-01-28T05:22:56;26.80;;;13.95;;
10226;SDS011;15634;48.766;2.272;2023-01-28T05:25:22;24.13;;;13.20;;
10226;SDS011;15634;48.766;2.272;2023-01-28T05:27:49;25.65;;;13.50;;
10226;SDS011;15634;48.766;2.272;2023-01-28T05:30:17;24.05;;;12.85;;
10226;SDS011;15634;48.766;2.272;2023-01-28T05:32:45;25.83;;;13.50;;
10226;SDS011;15634;48.766;2.272;2023-01-28T05:35:11;24.42;;;14.23;;
10226;SDS011;15634;48.766;2.272;2023-01-28T05:37:38;27.77;;;14.25;;
10226;SDS011;15634;48.766;2.272;2023-01-28T05:40:05;26.10;;;14.30;;
10226;SDS011;15634;48.766;2.272;2023-01-28T05:42:33;25.15;;;14.65;;
10226;SDS011;15634;48.766;2.272;2023-01-28T05:44:59;25.35;;;14.48;;
10226;SDS011;15634;48.766;2.272;2023-01-28T05:47:27;25.40;;;13.50;;
10226;SDS011;15634;48.766;2.272;2023-01-28T05:49:54;22.35;;;12.52;;
10226;SDS011;15634;48.766;2.272;2023-01-28T05:52:21;26.25;;;14.07;;
10226;SDS011;15634;48.766;2.272;2023-01-28T05:54:47;24.52;;;13.63;;
10226;SDS011;15634;48.766;2.272;2023-01-28T05:57:14;25.20;;;13.73;;
10226;SDS011;15634;48.766;2.272;2023-01-28T05:59:41;28.58;;;15.05;;
10226;SDS011;15634;48.766;2.272;2023-01-28T06:02:07;29.15;;;15.07;;
10226;SDS011;15634;48.766;2.272;2023-01-28T06:04:35;28.67;;;14.82;;
10226;SDS011;15634;48.766;2.272;2023-01-28T06:07:03;24.73;;;13.57;;
10226;SDS011;15634;48.766;2.272;2023-01-28T06:09:29;25.20;;;13.27;;
10226;SDS011;15634;48.766;2.272;2023-01-28T06:11:56;26.85;;;15.35;;
10226;SDS011;15634;48.766;2.272;2023-01-28T06:14:23;28.02;;;15.25;;
10226;SDS011;15634;48.766;2.272;2023-01-28T06:16:49;26.35;;;14.77;;
10226;SDS011;15634;48.766;2.272;2023-01-28T06:19:17;31.40;;;15.27;;
10226;SDS011;15634;48.766;2.272;2023-01-28T06:21:45;26.40;;;12.98;;
10226;SDS011;15634;48.766;2.272;2023-01-28T06:24:11;25.65;;;13.57;;
10226;SDS011;15634;48.766;2.272;2023-01-28T06:26:38;25.98;;;14.25;;
10226;SDS011;15634;48.766;2.272;2023-01-28T06:29:05;25.60;;;14.32;;
10226;SDS011;15634;48.766;2.272;2023-01-28T06:31:31;27.20;;;13.95;;
10226;SDS011;15634;48.766;2.272;2023-01-28T06:33:58;28.23;;;14.57;;
10226;SDS011;15634;48.766;2.272;2023-01-28T06:36:25;27.80;;;15.20;;
10226;SDS011;15634;48.766;2.272;2023-01-28T06:38:53;26.27;;;14.40;;
10226;SDS011;15634;48.766;2.272;2023-01-28T06:41:19;26.98;;;14.52;;
10226;SDS011;15634;48.766;2.272;2023-01-28T06:43:46;27.17;;;14.48;;
10226;SDS011;15634;48.766;2.272;2023-01-28T06:46:13;26.95;;;14.68;;
10226;SDS011;15634;48.766;2.272;2023-01-28T06:48:39;26.90;;;14.52;;
10226;SDS011;15634;48.766;2.272;2023-01-28T06:51:06;27.35;;;14.75;;
10226;SDS011;15634;48.766;2.272;2023-01-28T06:53:32;26.70;;;14.98;;
10226;SDS011;15634;48.766;2.272;2023-01-28T06:56:00;28.40;;;14.27;;
10226;SDS011;15634;48.766;2.272;2023-01-28T06:58:27;28.00;;;14.15;;
10226;SDS011;15634;48.766;2.272;2023-01-28T07:00:54;28.65;;;15.43;;
10226;SDS011;15634;48.766;2.272;2023-01-28T07:03:20;27.58;;;15.07;;
10226;SDS011;15634;48.766;2.272;2023-01-28T07:05:47;28.92;;;14.80;;
10226;SDS011;15634;48.766;2.272;2023-01-28T07:08:14;30.17;;;15.05;;
10226;SDS011;15634;48.766;2.272;2023-01-28T07:10:40;22.83;;;13.38;;
10226;SDS011;15634;48.766;2.272;2023-01-28T07:13:09;26.92;;;14.30;;
10226;SDS011;15634;48.766;2.272;2023-01-28T07:15:36;26.35;;;14.27;;
10226;SDS011;15634;48.766;2.272;2023-01-28T07:18:03;27.77;;;14.95;;
10226;SDS011;15634;48.766;2.272;2023-01-28T07:20:29;26.58;;;14.60;;
10226;SDS011;15634;48.766;2.272;2023-01-28T07:22:56;26.10;;;13.63;;
10226;SDS011;15634;48.766;2.272;2023-01-28T07:25:23;26.65;;;14.52;;
10226;SDS011;15634;48.766;2.272;2023-01-28T07:27:50;28.23;;;15.20;;
10226;SDS011;15634;48.766;2.272;2023-01-28T07:30:19;24.42;;;13.88;;
10226;SDS011;15634;48.766;2.272;2023-01-28T07:32:51;25.83;;;13.77;;
10226;SDS011;15634;48.766;2.272;2023-01-28T07:35:18;23.27;;;13.60;;
10226;SDS011;15634;48.766;2.272;2023-01-28T07:37:49;26.42;;;13.30;;
10226;SDS011;15634;48.766;2.272;2023-01-28T07:40:16;25.88;;;13.82;;
10226;SDS011;15634;48.766;2.272;2023-01-28T07:42:43;25.20;;;13.43;;
10226;SDS011;15634;48.766;2.272;2023-01-28T07:45:10;26.63;;;13.75;;
10226;SDS011;15634;48.766;2.272;2023-01-28T07:47:38;26.88;;;14.10;;
10226;SDS011;15634;48.766;2.272;2023-01-28T07:50:04;23.23;;;13.40;;
10226;SDS011;15634;48.766;2.272;2023-01-28T07:52:47;23.27;;;12.95;;
10226;SDS011;15634;48.766;2.272;2023-01-28T07:55:13;24.67;;;12.85;;
10226;SDS011;15634;48.766;2.272;2023-01-28T07:57:47;25.30;;;14.18;;
10226;SDS011;15634;48.766;2.272;2023-01-28T08:00:15;20.45;;;12.20;;
10226;SDS011;15634;48.766;2.272;2023-01-28T08:02:42;26.85;;;14.10;;
10226;SDS011;15634;48.766;2.272;2023-01-28T08:05:12;23.38;;;12.93;;
10226;SDS011;15634;48.766;2.272;2023-01-28T08:07:40;26.10;;;14.13;;
10226;SDS011;15634;48.766;2.272;2023-01-28T08:10:09;24.27;;;12.60;;
10226;SDS011;15634;48.766;2.272;2023-01-28T08:12:36;25.17;;;13.50;;
10226;SDS011;15634;48.766;2.272;2023-01-28T08:15:03;23.90;;;12.98;;
10226;SDS011;15634;48.766;2.272;2023-01-28T08:17:30;23.20;;;12.85;;
10226;SDS011;15634;48.766;2.272;2023-01-28T08:19:57;21.98;;;12.65;;
10226;SDS011;15634;48.766;2.272;2023-01-28T08:22:24;24.20;;;13.50;;
10226;SDS011;15634;48.766;2.272;2023-01-28T08:24:51;24.70;;;13.52;;
10226;SDS011;15634;48.766;2.272;2023-01-28T08:27:19;23.70;;;13.35;;
10226;SDS011;15634;48.766;2.272;2023-01-28T08:29:46;25.38;;;13.07;;
10226;SDS011;15634;48.766;2.272;2023-01-28T08:32:12;25.48;;;13.32;;
10226;SDS011;15634;48.766;2.272;2023-01-28T08:34:39;22.27;;;11.80;;
10226;SDS011;15634;48.766;2.272;2023-01-28T08:37:06;28.00;;;13.63;;
10226;SDS011;15634;48.766;2.272;2023-01-28T08:39:32;25.10;;;13.00;;
10226;SDS011;15634;48.766;2.272;2023-01-28T08:41:59;21.05;;;11.45;;
10226;SDS011;15634;48.766;2.272;2023-01-28T08:44:27;21.85;;;12.38;;
10226;SDS011;15634;48.766;2.272;2023-01-28T08:46:54;21.13;;;12.52;;
10226;SDS011;15634;48.766;2.272;2023-01-28T08:49:20;24.80;;;12.80;;
10226;SDS011;15634;48.766;2.272;2023-01-28T08:51:47;23.48;;;13.38;;
10226;SDS011;15634;48.766;2.272;2023-01-28T08:54:14;24.35;;;11.85;;
10226;SDS011;15634;48.766;2.272;2023-01-28T08:56:40;21.83;;;11.45;;
10226;SDS011;15634;48.766;2.272;2023-01-28T08:59:09;19.67;;;11.43;;
10226;SDS011;15634;48.766;2.272;2023-01-28T09:01:37;22.40;;;11.68;;
10226;SDS011;15634;48.766;2.272;2023-01-28T09:04:04;20.48;;;11.57;;
10226;SDS011;15634;48.766;2.272;2023-01-28T09:06:31;16.98;;;10.20;;
10226;SDS011;15634;48.766;2.272;2023-01-28T09:08:58;23.67;;;12.68;;
10226;SDS011;15634;48.766;2.272;2023-01-28T09:11:25;21.20;;;11.18;;
10226;SDS011;15634;48.766;2.272;2023-01-28T09:13:52;23.48;;;11.40;;
10226;SDS011;15634;48.766;2.272;2023-01-28T09:16:19;29.27;;;14.68;;
10226;SDS011;15634;48.766;2.272;2023-01-28T09:18:47;39.03;;;18.42;;
10226;SDS011;15634;48.766;2.272;2023-01-28T09:21:15;23.33;;;11.93;;
10226;SDS011;15634;48.766;2.272;2023-01-28T09:23:43;28.40;;;13.80;;
10226;SDS011;15634;48.766;2.272;2023-01-28T09:26:09;26.10;;;13.35;;
10226;SDS011;15634;48.766;2.272;2023-01-28T09:28:36;24.67;;;12.68;;
10226;SDS011;15634;48.766;2.272;2023-01-28T09:31:05;24.65;;;12.65;;
10226;SDS011;15634;48.766;2.272;2023-01-28T09:33:32;19.90;;;10.63;;
10226;SDS011;15634;48.766;2.272;2023-01-28T09:36:02;20.95;;;11.15;;
10226;SDS011;15634;48.766;2.272;2023-01-28T09:38:30;18.58;;;10.65;;
10226;SDS011;15634;48.766;2.272;2023-01-28T09:40:59;20.60;;;11.45;;
10226;SDS011;15634;48.766;2.272;2023-01-28T09:43:31;19.38;;;10.82;;
10226;SDS011;15634;48.766;2.272;2023-01-28T09:46:12;18.38;;;10.93;;
10226;SDS011;15634;48.766;2.272;2023-01-28T09:48:40;19.92;;;10.43;;
10226;SDS011;15634;48.766;2.272;2023-01-28T09:51:27;17.25;;;10.80;;
10226;SDS011;15634;48.766;2.272;2023-01-28T09:53:58;19.92;;;11.40;;
10226;SDS011;15634;48.766;2.272;2023-01-28T09:56:29;20.30;;;10.32;;
10226;SDS011;15634;48.766;2.272;2023-01-28T09:58:56;18.75;;;10.82;;
10226;SDS011;15634;48.766;2.272;2023-01-28T10:01:32;20.27;;;11.23;;
10226;SDS011;15634;48.766;2.272;2023-01-28T10:04:04;15.82;;;8.80;;
10226;SDS011;15634;48.766;2.272;2023-01-28T10:06:41;14.27;;;8.27;;
10226;SDS011;15634;48.766;2.272;2023-01-28T10:09:18;17.67;;;10.93;;
10226;SDS011;15634;48.766;2.272;2023-01-28T10:11:57;17.08;;;9.98;;
10226;SDS011;15634;48.766;2.272;2023-01-28T10:14:32;20.35;;;10.73;;
10226;SDS011;15634;48.766;2.272;2023-01-28T10:17:06;19.55;;;11.13;;
10226;SDS011;15634;48.766;2.272;2023-01-28T10:19:36;18.00;;;10.38;;
10226;SDS011;15634;48.766;2.272;2023-01-28T10:22:08;22.52;;;12.35;;
10226;SDS011;15634;48.766;2.272;2023-01-28T10:24:39;23.90;;;12.70;;
10226;SDS011;15634;48.766;2.272;2023-01-28T10:27:08;16.55;;;10.10;;
10226;SDS011;15634;48.766;2.272;2023-01-28T10:29:38;20.00;;;11.82;;
10226;SDS011;15634;48.766;2.272;2023-01-28T10:32:13;20.00;;;11.50;;
10226;SDS011;15634;48.766;2.272;2023-01-28T10:34:42;17.80;;;10.20;;
10226;SDS011;15634;48.766;2.272;2023-01-28T10:37:11;20.20;;;11.63;;
10226;SDS011;15634;48.766;2.272;2023-01-28T10:39:38;19.90;;;11.60;;
10226;SDS011;15634;48.766;2.272;2023-01-28T10:42:11;18.35;;;11.52;;
10226;SDS011;15634;48.766;2.272;2023-01-28T10:44:43;20.38;;;13.35;;
10226;SDS011;15634;48.766;2.272;2023-01-28T10:47:12;22.77;;;12.05;;
10226;SDS011;15634;48.766;2.272;2023-01-28T10:49:41;20.77;;;12.00;;
10226;SDS011;15634;48.766;2.272;2023-01-28T10:52:11;21.08;;;12.35;;
10226;SDS011;15634;48.766;2.272;2023-01-28T10:54:38;21.85;;;12.68;;
10226;SDS011;15634;48.766;2.272;2023-01-28T10:57:07;17.35;;;9.35;;
10226;SDS011;15634;48.766;2.272;2023-01-28T10:59:37;18.33;;;11.48;;
10226;SDS011;15634;48.766;2.272;2023-01-28T11:02:19;20.50;;;12.18;;
10226;SDS011;15634;48.766;2.272;2023-01-28T11:04:48;20.25;;;12.25;;
10226;SDS011;15634;48.766;2.272;2023-01-28T11:07:28;25.15;;;14.68;;
10226;SDS011;15634;48.766;2.272;2023-01-28T11:09:54;23.33;;;13.70;;
10226;SDS011;15634;48.766;2.272;2023-01-28T11:12:22;27.33;;;15.30;;
10226;SDS011;15634;48.766;2.272;2023-01-28T11:14:51;19.75;;;11.68;;
10226;SDS011;15634;48.766;2.272;2023-01-28T11:17:20;21.77;;;12.63;;
10226;SDS011;15634;48.766;2.272;2023-01-28T11:19:48;23.75;;;13.32;;
10226;SDS011;15634;48.766;2.272;2023-01-28T11:22:20;21.92;;;12.52;;
10226;SDS011;15634;48.766;2.272;2023-01-28T11:24:50;24.05;;;13.38;;
10226;SDS011;15634;48.766;2.272;2023-01-28T11:27:17;23.10;;;13.45;;
10226;SDS011;15634;48.766;2.272;2023-01-28T11:29:49;20.92;;;12.98;;
10226;SDS011;15634;48.766;2.272;2023-01-28T11:32:23;23.17;;;13.77;;
10226;SDS011;15634;48.766;2.272;2023-01-28T11:34:52;22.90;;;12.70;;
10226;SDS011;15634;48.766;2.272;2023-01-28T11:37:21;21.92;;;12.30;;
10226;SDS011;15634;48.766;2.272;2023-01-28T11:40:00;19.58;;;11.52;;
10226;SDS011;15634;48.766;2.272;2023-01-28T11:42:28;19.13;;;11.13;;
10226;SDS011;15634;48.766;2.272;2023-01-28T11:44:55;20.80;;;11.90;;
10226;SDS011;15634;48.766;2.272;2023-01-28T11:47:25;19.98;;;11.68;;
10226;SDS011;15634;48.766;2.272;2023-01-28T11:50:04;21.15;;;11.95;;
10226;SDS011;15634;48.766;2.272;2023-01-28T11:52:54;17.63;;;11.20;;
10226;SDS011;15634;48.766;2.272;2023-01-28T11:55:34;18.55;;;11.43;;
10226;SDS011;15634;48.766;2.272;2023-01-28T11:58:05;21.83;;;11.77;;
10226;SDS011;15634;48.766;2.272;2023-01-28T12:00:40;18.35;;;11.10;;
10226;SDS011;15634;48.766;2.272;2023-01-28T12:03:19;18.55;;;10.68;;
10226;SDS011;15634;48.766;2.272;2023-01-28T12:05:52;19.50;;;10.80;;
10226;SDS011;15634;48.766;2.272;2023-01-28T12:08:21;18.15;;;10.20;;
10226;SDS011;15634;48.766;2.272;2023-01-28T12:10:55;18.70;;;11.82;;
10226;SDS011;15634;48.766;2.272;2023-01-28T12:14:12;18.15;;;10.95;;
10226;SDS011;15634;48.766;2.272;2023-01-28T12:16:47;21.48;;;12.25;;
10226;SDS011;15634;48.766;2.272;2023-01-28T12:19:22;17.67;;;10.52;;
10226;SDS011;15634;48.766;2.272;2023-01-28T12:22:08;17.38;;;10.05;;
10226;SDS011;15634;48.766;2.272;2023-01-28T12:24:54;20.17;;;11.40;;
10226;SDS011;15634;48.766;2.272;2023-01-28T12:27:33;18.20;;;10.57;;
10226;SDS011;15634;48.766;2.272;2023-01-28T12:30:10;20.45;;;12.02;;
10226;SDS011;15634;48.766;2.272;2023-01-28T12:32:47;21.42;;;11.48;;
10226;SDS011;15634;48.766;2.272;2023-01-28T12:35:29;20.70;;;11.45;;
10226;SDS011;15634;48.766;2.272;2023-01-28T12:38:07;20.45;;;11.93;;
10226;SDS011;15634;48.766;2.272;2023-01-28T12:40:45;23.73;;;13.38;;
10226;SDS011;15634;48.766;2.272;2023-01-28T12:43:21;22.05;;;12.75;;
10226;SDS011;15634;48.766;2.272;2023-01-28T12:45:53;22.95;;;13.30;;
10226;SDS011;15634;48.766;2.272;2023-01-28T12:48:21;25.15;;;14.18;;
10226;SDS011;15634;48.766;2.272;2023-01-28T12:50:50;20.80;;;11.77;;
10226;SDS011;15634;48.766;2.272;2023-01-28T12:53:21;23.48;;;11.93;;
10226;SDS011;15634;48.766;2.272;2023-01-28T12:55:52;21.10;;;12.20;;
10226;SDS011;15634;48.766;2.272;2023-01-28T12:58:21;22.30;;;12.05;;
10226;SDS011;15634;48.766;2.272;2023-01-28T13:00:55;24.48;;;13.32;;
10226;SDS011;15634;48.766;2.272;2023-01-28T13:03:25;21.67;;;12.90;;
10226;SDS011;15634;48.766;2.272;2023-01-28T13:05:58;22.05;;;12.20;;
10226;SDS011;15634;48.766;2.272;2023-01-28T13:08:27;21.75;;;13.05;;
10226;SDS011;15634;48.766;2.272;2023-01-28T13:10:55;24.05;;;13.00;;
10226;SDS011;15634;48.766;2.272;2023-01-28T13:13:26;21.65;;;12.23;;
10226;SDS011;15634;48.766;2.272;2023-01-28T13:15:55;24.63;;;13.00;;
10226;SDS011;15634;48.766;2.272;2023-01-28T13:18:29;21.90;;;12.40;;
10226;SDS011;15634;48.766;2.272;2023-01-28T13:20:58;25.48;;;12.63;;
10226;SDS011;15634;48.766;2.272;2023-01-28T13:23:27;24.63;;;12.85;;
10226;SDS011;15634;48.766;2.272;2023-01-28T13:26:08;21.70;;;12.27;;
10226;SDS011;15634;48.766;2.272;2023-01-28T13:31:05;24.40;;;12.93;;
10226;SDS011;15634;48.766;2.272;2023-01-28T13:33:34;23.50;;;12.88;;
10226;SDS011;15634;48.766;2.272;2023-01-28T13:36:13;23.35;;;13.02;;
10226;SDS011;15634;48.766;2.272;2023-01-28T13:38:47;21.00;;;12.55;;
10226;SDS011;15634;48.766;2.272;2023-01-28T13:41:14;20.92;;;12.07;;
10226;SDS011;15634;48.766;2.272;2023-01-28T13:43:42;19.15;;;10.98;;
10226;SDS011;15634;48.766;2.272;2023-01-28T13:46:10;23.00;;;12.60;;
10226;SDS011;15634;48.766;2.272;2023-01-28T13:48:41;20.75;;;12.82;;
10226;SDS011;15634;48.766;2.272;2023-01-28T13:53:43;23.48;;;13.15;;
10226;SDS011;15634;48.766;2.272;2023-01-28T13:56:16;21.10;;;11.18;;
10226;SDS011;15634;48.766;2.272;2023-01-28T13:59:07;21.92;;;11.57;;
10226;SDS011;15634;48.766;2.272;2023-01-28T14:01:56;21.38;;;12.40;;
10226;SDS011;15634;48.766;2.272;2023-01-28T14:04:48;21.65;;;12.65;;
10226;SDS011;15634;48.766;2.272;2023-01-28T14:07:29;23.23;;;12.40;;
10226;SDS011;15634;48.766;2.272;2023-01-28T14:10:15;23.98;;;12.05;;
10226;SDS011;15634;48.766;2.272;2023-01-28T14:15:56;23.90;;;12.75;;
10226;SDS011;15634;48.766;2.272;2023-01-28T14:18:25;23.33;;;12.98;;
10226;SDS011;15634;48.766;2.272;2023-01-28T14:20:54;21.42;;;12.32;;
10226;SDS011;15634;48.766;2.272;2023-01-28T14:23:22;24.55;;;13.52;;
10226;SDS011;15634;48.766;2.272;2023-01-28T14:28:41;23.00;;;12.52;;
10226;SDS011;15634;48.766;2.272;2023-01-28T14:31:16;21.95;;;12.40;;
10226;SDS011;15634;48.766;2.272;2023-01-28T14:33:47;24.35;;;12.88;;
10226;SDS011;15634;48.766;2.272;2023-01-28T14:36:13;24.27;;;12.00;;
10226;SDS011;15634;48.766;2.272;2023-01-28T14:38:41;21.23;;;11.85;;
10226;SDS011;15634;48.766;2.272;2023-01-28T14:41:08;25.40;;;13.55;;
10226;SDS011;15634;48.766;2.272;2023-01-28T14:43:46;25.88;;;13.90;;
10226;SDS011;15634;48.766;2.272;2023-01-28T14:46:18;22.52;;;13.13;;
10226;SDS011;15634;48.766;2.272;2023-01-28T14:48:56;22.45;;;12.95;;
10226;SDS011;15634;48.766;2.272;2023-01-28T14:51:43;22.20;;;12.70;;